Time;durP1;ratioP1;P1;durP2;ratioP2;P2;SDS_P1;SDS_P2;PMS_P1;PMS_P2;Temp;Humidity;BMP_temperature;BMP_pressure;BME280_temperature;BME280_humidity;BME280_pressure;Samples;Min_cycle;Max_cycle;Signal;HPM_P1;HPM_P2
2023/08/07 00:02:52;;;;;;;4.03;3.80;;;14.50;75.90;;;;;;6197678;28;20824;-81
2023/08/07 00:05:55;;;;;;;3.77;3.67;;;14.60;75.80;;;;;;6205823;28;20247;-79
2023/08/07 00:09:00;;;;;;;4.30;4.07;;;14.60;75.70;;;;;;6204635;28;20330;-80
2023/08/07 00:12:03;;;;;;;4.13;3.93;;;14.60;75.70;;;;;;6191882;28;20237;-82
2023/08/07 00:15:07;;;;;;;4.30;4.10;;;14.50;75.70;;;;;;6195045;28;20243;-81
2023/08/07 00:18:11;;;;;;;6.17;4.00;;;14.50;75.40;;;;;;6198776;28;20240;-80
2023/08/07 00:21:14;;;;;;;3.80;3.70;;;14.50;75.50;;;;;;6200408;28;20242;-81
2023/08/07 00:24:18;;;;;;;4.83;4.63;;;14.50;75.50;;;;;;6214241;28;20243;-83
2023/08/07 00:27:22;;;;;;;4.80;4.43;;;14.60;75.90;;;;;;6195921;28;20279;-83
2023/08/07 00:30:26;;;;;;;5.43;4.63;;;14.50;76.20;;;;;;6206657;28;20278;-81
2023/08/07 00:33:32;;;;;;;4.97;4.53;;;14.50;76.80;;;;;;6205335;28;20236;-80
2023/08/07 00:36:35;;;;;;;5.37;4.97;;;14.50;77.20;;;;;;6194089;28;20710;-83
2023/08/07 00:39:40;;;;;;;5.37;5.07;;;14.50;77.50;;;;;;6205777;28;20925;-79
2023/08/07 00:42:43;;;;;;;5.63;5.10;;;14.50;77.70;;;;;;6193896;28;20671;-82
2023/08/07 00:45:49;;;;;;;4.93;4.70;;;14.60;78.10;;;;;;6209565;28;20329;-81
2023/08/07 00:48:53;;;;;;;5.20;5.00;;;14.50;78.10;;;;;;6190785;28;20292;-83
2023/08/07 00:51:56;;;;;;;5.30;4.90;;;14.60;78.10;;;;;;6200558;28;20344;-81
2023/08/07 00:55:01;;;;;;;4.80;4.60;;;14.60;77.90;;;;;;6199342;28;20255;-82
2023/08/07 00:58:04;;;;;;;4.73;4.47;;;14.60;78.00;;;;;;6202250;28;20247;-82
2023/08/07 01:01:08;;;;;;;5.00;4.60;;;14.60;77.80;;;;;;6210576;28;20902;-83
2023/08/07 01:04:11;;;;;;;5.13;4.73;;;14.60;77.80;;;;;;6205277;28;20703;-81
2023/08/07 01:07:14;;;;;;;4.13;4.03;;;14.60;77.50;;;;;;6204327;28;20306;-82
2023/08/07 01:10:20;;;;;;;4.50;4.20;;;14.60;77.40;;;;;;6190726;28;20318;-81
2023/08/07 01:13:29;;;;;;;6.10;4.43;;;14.60;76.80;;;;;;6193039;28;20251;-83
2023/08/07 01:16:37;;;;;;;4.80;4.67;;;14.60;76.50;;;;;;6193580;28;20320;-80
2023/08/07 01:19:41;;;;;;;4.60;4.30;;;14.60;76.70;;;;;;6205514;28;20243;-83
2023/08/07 01:22:46;;;;;;;4.83;4.43;;;14.60;76.60;;;;;;6212382;28;20239;-81
2023/08/07 01:25:49;;;;;;;4.70;4.40;;;14.60;76.60;;;;;;6208714;28;20243;-84
2023/08/07 01:29:06;;;;;;;4.80;4.50;;;14.60;76.80;;;;;;6202441;28;20320;-81
2023/08/07 01:32:12;;;;;;;4.10;4.00;;;14.60;76.50;;;;;;6195950;28;20255;-80
2023/08/07 01:35:17;;;;;;;3.70;3.60;;;14.60;76.40;;;;;;6202634;28;20310;-84
2023/08/07 01:38:25;;;;;;;4.80;4.50;;;14.70;76.30;;;;;;6194418;28;20263;-80
2023/08/07 01:41:29;;;;;;;4.70;4.30;;;14.60;76.40;;;;;;6196492;28;20255;-83
2023/08/07 01:44:32;;;;;;;4.93;4.60;;;14.60;76.50;;;;;;6205501;28;20246;-81
2023/08/07 01:47:35;;;;;;;5.20;4.70;;;14.60;76.10;;;;;;6204349;28;20791;-83
2023/08/07 01:50:39;;;;;;;5.00;4.80;;;14.60;76.30;;;;;;6212711;28;20231;-81
2023/08/07 01:53:45;;;;;;;5.60;4.43;;;14.60;76.20;;;;;;6200854;28;20227;-82
2023/08/07 01:56:48;;;;;;;6.97;4.80;;;14.50;76.20;;;;;;6200783;28;20235;-80
2023/08/07 01:59:51;;;;;;;5.50;5.10;;;14.60;76.40;;;;;;6200754;28;20310;-83
2023/08/07 02:02:54;;;;;;;5.27;4.80;;;14.40;76.80;;;;;;6193121;28;20806;-82
2023/08/07 02:05:57;;;;;;;4.90;4.60;;;14.40;77.30;;;;;;6204561;28;20256;-82
2023/08/07 02:09:02;;;;;;;5.60;5.13;;;14.30;77.70;;;;;;6195418;28;20520;-83
2023/08/07 02:12:06;;;;;;;5.77;5.33;;;14.30;77.80;;;;;;6196785;28;20836;-81
2023/08/07 02:15:23;;;;;;;5.27;4.80;;;14.30;78.00;;;;;;6195636;28;20232;-82
2023/08/07 02:18:27;;;;;;;5.43;5.07;;;14.30;78.10;;;;;;6197150;28;20246;-82
2023/08/07 02:21:30;;;;;;;9.90;5.50;;;14.20;78.20;;;;;;6204391;28;20231;-81
2023/08/07 02:24:34;;;;;;;5.73;5.33;;;14.20;78.40;;;;;;6178432;28;20230;-83
2023/08/07 02:27:37;;;;;;;5.90;5.50;;;14.20;78.70;;;;;;6209416;28;20236;-83
2023/08/07 02:30:40;;;;;;;6.33;5.93;;;14.20;78.80;;;;;;6205277;28;20246;-80
2023/08/07 02:33:43;;;;;;;6.03;5.53;;;14.30;78.80;;;;;;6195327;28;20323;-79
2023/08/07 02:36:47;;;;;;;6.40;6.00;;;14.30;79.20;;;;;;6198447;28;20254;-82
2023/08/07 02:39:53;;;;;;;6.23;5.73;;;14.40;79.30;;;;;;6189464;28;20848;-82
2023/08/07 02:42:56;;;;;;;6.63;6.13;;;14.40;79.50;;;;;;6210002;28;20239;-82
2023/08/07 02:45:59;;;;;;;6.27;5.87;;;14.40;79.70;;;;;;6210299;28;20270;-83
2023/08/07 02:49:03;;;;;;;8.00;6.73;;;14.40;80.00;;;;;;6212354;28;20267;-81
2023/08/07 02:52:07;;;;;;;6.47;6.07;;;14.50;80.00;;;;;;6211857;28;20374;-81
2023/08/07 02:55:11;;;;;;;6.40;5.90;;;14.50;80.50;;;;;;6210795;28;20749;-81
2023/08/07 02:58:14;;;;;;;6.50;6.10;;;14.50;80.30;;;;;;6197230;28;20240;-80
2023/08/07 03:01:18;;;;;;;7.70;6.33;;;14.60;80.40;;;;;;6193953;28;20326;-82
2023/08/07 03:04:21;;;;;;;7.13;5.87;;;14.60;80.30;;;;;;6203333;28;20270;-82
2023/08/07 03:07:24;;;;;;;6.63;6.23;;;14.60;80.40;;;;;;6200363;28;20718;-82
2023/08/07 03:10:28;;;;;;;7.10;6.60;;;14.60;80.50;;;;;;6211228;28;20376;-83
2023/08/07 03:13:31;;;;;;;7.30;6.53;;;14.70;80.50;;;;;;6193631;28;20243;-81
2023/08/07 03:16:36;;;;;;;7.93;7.23;;;14.60;80.60;;;;;;6204120;28;20583;-81
2023/08/07 03:19:43;;;;;;;6.83;6.30;;;14.60;80.60;;;;;;6193120;28;20637;-82
2023/08/07 03:22:46;;;;;;;7.17;6.60;;;14.70;80.50;;;;;;6195029;28;20239;-80
2023/08/07 03:25:50;;;;;;;11.57;6.63;;;14.70;80.50;;;;;;6208941;28;20231;-81
2023/08/07 03:28:58;;;;;;;7.03;6.40;;;14.80;80.60;;;;;;6213434;28;20236;-81
2023/08/07 03:32:01;;;;;;;7.83;7.10;;;14.80;80.40;;;;;;6201020;28;20248;-82
2023/08/07 03:35:05;;;;;;;7.50;6.80;;;14.70;80.60;;;;;;6207778;28;20236;-84
2023/08/07 03:38:08;;;;;;;7.60;6.90;;;14.70;80.80;;;;;;6202006;28;20227;-82
2023/08/07 03:41:13;;;;;;;8.43;7.50;;;14.70;80.80;;;;;;6207973;28;20683;-82
2023/08/07 03:44:16;;;;;;;13.23;7.57;;;14.60;81.00;;;;;;6212255;28;20723;-83
2023/08/07 03:47:19;;;;;;;9.07;7.50;;;14.60;81.10;;;;;;6218035;28;20246;-76
2023/08/07 03:50:22;;;;;;;9.07;6.97;;;14.60;81.00;;;;;;6204105;28;20244;-77
2023/08/07 03:53:25;;;;;;;8.57;7.40;;;14.60;81.00;;;;;;6212121;28;20776;-78
2023/08/07 03:56:32;;;;;;;9.77;7.87;;;14.60;81.00;;;;;;6214128;28;20239;-82
2023/08/07 03:59:35;;;;;;;7.67;6.87;;;14.70;80.90;;;;;;6205339;28;20378;-85
2023/08/07 04:02:38;;;;;;;8.77;7.87;;;14.60;80.90;;;;;;6202089;28;20243;-84
2023/08/07 04:05:42;;;;;;;7.10;6.60;;;14.60;80.80;;;;;;6204373;28;20253;-83
2023/08/07 04:08:46;;;;;;;13.10;7.10;;;14.70;80.80;;;;;;6207816;28;20654;-81
2023/08/07 04:11:50;;;;;;;7.90;7.30;;;14.70;80.90;;;;;;6204636;28;20232;-82
2023/08/07 04:14:54;;;;;;;8.40;7.57;;;14.70;80.70;;;;;;6206876;28;20786;-83
2023/08/07 04:17:57;;;;;;;9.80;7.00;;;14.70;80.60;;;;;;6211027;28;20243;-83
2023/08/07 04:21:01;;;;;;;7.40;6.77;;;14.70;80.40;;;;;;6209031;28;20227;-81
2023/08/07 04:24:10;;;;;;;8.40;7.30;;;14.70;80.20;;;;;;6207375;28;20239;-81
2023/08/07 04:27:14;;;;;;;6.87;6.27;;;14.80;80.00;;;;;;6203494;28;20236;-82
2023/08/07 04:30:18;;;;;;;7.33;6.70;;;14.90;79.80;;;;;;6208241;28;20310;-82
2023/08/07 04:33:21;;;;;;;6.93;6.30;;;14.90;79.70;;;;;;6200882;28;20237;-80
2023/08/07 04:36:25;;;;;;;8.17;6.93;;;14.90;79.50;;;;;;6194115;28;20224;-84
2023/08/07 04:39:28;;;;;;;6.90;5.83;;;14.90;79.20;;;;;;6191608;28;20255;-81
2023/08/07 04:42:33;;;;;;;6.67;6.27;;;15.00;79.40;;;;;;6204596;28;20236;-82
2023/08/07 04:45:38;;;;;;;6.60;6.00;;;15.00;79.00;;;;;;6204229;28;20752;-82
2023/08/07 04:48:41;;;;;;;6.17;5.87;;;15.00;78.90;;;;;;6210386;28;20242;-82
2023/08/07 04:51:44;;;;;;;8.40;6.87;;;15.00;78.90;;;;;;6198767;28;20875;-80
2023/08/07 04:54:47;;;;;;;6.73;6.10;;;15.10;78.70;;;;;;6194146;28;20400;-83
2023/08/07 04:57:54;;;;;;;6.73;5.87;;;15.10;78.20;;;;;;6194354;28;20239;-82
2023/08/07 05:00:57;;;;;;;7.23;5.80;;;15.00;78.40;;;;;;6195777;28;20311;-84
2023/08/07 05:04:01;;;;;;;6.07;5.60;;;15.00;78.20;;;;;;6201471;28;20511;-82
2023/08/07 05:07:05;;;;;;;6.30;5.63;;;15.10;78.20;;;;;;6198075;28;20235;-82
2023/08/07 05:10:10;;;;;;;6.40;6.00;;;15.00;77.70;;;;;;6204512;28;20243;-81
2023/08/07 05:13:14;;;;;;;6.17;5.40;;;15.00;77.90;;;;;;6197554;28;20255;-83
2023/08/07 05:16:18;;;;;;;8.27;5.43;;;15.10;77.70;;;;;;6198137;28;20255;-85
2023/08/07 05:19:22;;;;;;;5.80;5.40;;;15.20;77.10;;;;;;6192541;28;20759;-83
2023/08/07 05:22:25;;;;;;;5.40;5.10;;;15.20;77.50;;;;;;6200682;28;20232;-79
2023/08/07 05:25:28;;;;;;;5.80;5.30;;;15.20;77.20;;;;;;6188493;28;20323;-79
2023/08/07 05:28:33;;;;;;;5.23;4.93;;;15.10;77.00;;;;;;6199216;28;20335;-80
2023/08/07 05:31:36;;;;;;;5.90;5.53;;;15.00;77.10;;;;;;6210181;28;20843;-78
2023/08/07 05:34:40;;;;;;;5.23;4.87;;;15.00;76.90;;;;;;6208541;28;20239;-80
2023/08/07 05:37:43;;;;;;;10.50;6.10;;;15.00;77.30;;;;;;6203921;28;20242;-79
2023/08/07 05:40:46;;;;;;;5.13;4.93;;;15.00;76.90;;;;;;6206782;28;20313;-77
2023/08/07 05:43:51;;;;;;;6.37;5.77;;;15.00;77.20;;;;;;6195010;28;20240;-79
2023/08/07 05:46:54;;;;;;;5.10;4.90;;;15.00;77.00;;;;;;6201519;28;20334;-79
2023/08/07 05:49:57;;;;;;;5.60;5.00;;;15.00;76.80;;;;;;6211284;28;21082;-79
2023/08/07 05:53:00;;;;;;;5.87;5.23;;;15.00;76.80;;;;;;6205047;28;20232;-79
2023/08/07 05:56:03;;;;;;;5.20;4.93;;;15.00;76.80;;;;;;6199735;28;20315;-79
2023/08/07 05:59:08;;;;;;;5.30;5.00;;;15.00;77.00;;;;;;6200630;28;20231;-78
2023/08/07 06:02:11;;;;;;;5.60;5.07;;;15.20;76.50;;;;;;6200536;28;20235;-77
2023/08/07 06:05:16;;;;;;;4.97;4.67;;;15.30;76.40;;;;;;6209676;28;20326;-78
2023/08/07 06:08:19;;;;;;;7.33;4.80;;;15.30;75.90;;;;;;6204430;28;20259;-77
2023/08/07 06:11:22;;;;;;;5.33;4.97;;;15.30;76.10;;;;;;6198738;28;20827;-78
2023/08/07 06:14:27;;;;;;;4.73;4.37;;;15.40;76.00;;;;;;6203839;28;20790;-79
2023/08/07 06:17:30;;;;;;;5.20;4.80;;;15.60;75.30;;;;;;6201196;28;20797;-80
2023/08/07 06:20:34;;;;;;;4.43;4.23;;;15.80;75.00;;;;;;6198421;28;20242;-78
2023/08/07 06:23:38;;;;;;;4.90;4.50;;;16.00;74.40;;;;;;6207373;28;20232;-79
2023/08/07 06:26:41;;;;;;;4.50;4.30;;;16.00;73.90;;;;;;6204610;28;20357;-80
2023/08/07 06:29:46;;;;;;;4.60;4.40;;;16.10;73.80;;;;;;6202174;28;20238;-80
2023/08/07 06:32:49;;;;;;;4.23;3.93;;;16.20;72.90;;;;;;6199822;28;20243;-79
2023/08/07 06:35:53;;;;;;;5.53;4.37;;;16.20;73.20;;;;;;6203985;28;20250;-79
2023/08/07 06:38:56;;;;;;;4.57;4.17;;;16.40;73.00;;;;;;6200445;28;20849;-79
2023/08/07 06:42:00;;;;;;;4.07;3.87;;;16.60;71.80;;;;;;6200473;28;20355;-79
2023/08/07 06:45:07;;;;;;;3.47;3.37;;;16.60;71.30;;;;;;6206591;28;20284;-83
2023/08/07 06:48:11;;;;;;;3.63;3.37;;;16.60;70.50;;;;;;6201493;28;20228;-84
2023/08/07 06:51:15;;;;;;;3.43;3.30;;;16.70;70.00;;;;;;6209660;28;20227;-83
2023/08/07 06:54:18;;;;;;;4.57;3.60;;;16.80;70.70;;;;;;6206343;28;20232;-83
2023/08/07 06:57:22;;;;;;;6.00;3.57;;;16.80;69.50;;;;;;6208082;28;20736;-86
2023/08/07 07:00:26;;;;;;;4.90;3.57;;;16.70;69.90;;;;;;6205319;28;21268;-83
2023/08/07 07:03:30;;;;;;;3.93;3.37;;;16.70;69.90;;;;;;6196512;28;20307;-84
2023/08/07 07:06:33;;;;;;;3.67;3.53;;;16.90;69.20;;;;;;6207293;28;20907;-84
2023/08/07 07:09:37;;;;;;;4.17;3.60;;;16.90;68.60;;;;;;6209605;28;20239;-84
2023/08/07 07:12:40;;;;;;;3.53;3.33;;;17.00;68.90;;;;;;6205058;28;20240;-83
2023/08/07 07:15:45;;;;;;;3.13;2.83;;;17.00;68.30;;;;;;6207617;28;20246;-85
2023/08/07 07:18:48;;;;;;;3.30;3.10;;;17.20;68.00;;;;;;6203116;28;20236;-83
2023/08/07 07:21:51;;;;;;;3.20;3.00;;;17.30;68.00;;;;;;6202065;28;20243;-83
2023/08/07 07:24:55;;;;;;;3.87;3.57;;;17.50;67.40;;;;;;6217462;28;20224;-82
2023/08/07 07:27:58;;;;;;;3.30;3.20;;;17.50;67.70;;;;;;6234472;28;20223;-84
2023/08/07 07:31:04;;;;;;;3.50;3.40;;;17.60;68.40;;;;;;6246177;28;20226;-81
2023/08/07 07:34:07;;;;;;;3.03;2.87;;;17.80;67.20;;;;;;6241089;28;20212;-78
2023/08/07 07:37:11;;;;;;;3.30;3.20;;;17.70;66.20;;;;;;6241027;28;20239;-83
2023/08/07 07:40:15;;;;;;;3.47;3.17;;;17.60;66.60;;;;;;6237515;28;20299;-81
2023/08/07 07:43:18;;;;;;;3.13;2.93;;;17.50;66.60;;;;;;6239605;28;20232;-84
2023/08/07 07:46:23;;;;;;;2.93;2.83;;;17.50;66.80;;;;;;6240121;28;20278;-83
2023/08/07 07:49:26;;;;;;;3.33;3.00;;;17.50;67.00;;;;;;6239773;28;20258;-82
2023/08/07 07:52:29;;;;;;;3.47;3.17;;;17.50;66.90;;;;;;6230831;28;20239;-82
2023/08/07 07:55:34;;;;;;;3.73;3.10;;;17.70;67.10;;;;;;6236332;28;20225;-82
2023/08/07 07:58:38;;;;;;;2.87;2.60;;;17.80;67.00;;;;;;6251976;28;20254;-83
2023/08/07 08:01:43;;;;;;;3.13;2.83;;;17.70;66.10;;;;;;6239943;28;20250;-84
2023/08/07 08:04:46;;;;;;;3.03;2.83;;;17.80;66.00;;;;;;6227452;28;20292;-83
2023/08/07 08:07:49;;;;;;;3.30;3.00;;;17.80;66.40;;;;;;6236696;28;20231;-83
2023/08/07 08:10:53;;;;;;;4.00;2.87;;;17.60;65.90;;;;;;6242811;28;20223;-82
2023/08/07 08:13:56;;;;;;;2.97;2.87;;;17.70;66.80;;;;;;6245652;28;20381;-82
2023/08/07 08:17:01;;;;;;;3.13;3.07;;;17.90;66.10;;;;;;6240074;28;20243;-84
2023/08/07 08:20:05;;;;;;;3.53;3.33;;;18.00;65.60;;;;;;6238968;28;20227;-83
2023/08/07 08:23:08;;;;;;;3.43;3.20;;;18.10;65.70;;;;;;6242015;28;20246;-85
2023/08/07 08:26:11;;;;;;;4.43;3.10;;;18.00;65.80;;;;;;6241060;28;20227;-84
2023/08/07 08:29:16;;;;;;;4.93;3.17;;;18.10;66.00;;;;;;6240069;28;20361;-82
2023/08/07 08:32:20;;;;;;;4.23;3.23;;;18.00;66.00;;;;;;6234847;28;20216;-83
2023/08/07 08:35:23;;;;;;;4.60;4.20;;;18.10;66.80;;;;;;6244727;28;20247;-82
2023/08/07 08:38:32;;;;;;;4.10;3.70;;;18.10;66.40;;;;;;6223593;28;20246;-84
2023/08/07 08:41:35;;;;;;;3.50;3.30;;;18.10;66.70;;;;;;6196135;28;20599;-84
2023/08/07 08:44:40;;;;;;;4.23;3.83;;;18.00;66.40;;;;;;6216828;28;20235;-86
2023/08/07 08:47:47;;;;;;;3.60;3.33;;;18.00;66.90;;;;;;6204769;28;20843;-84
2023/08/07 08:50:51;;;;;;;3.33;3.30;;;18.00;66.60;;;;;;6197458;28;20243;-80
2023/08/07 08:53:56;;;;;;;3.70;3.50;;;18.20;66.50;;;;;;6212807;28;20313;-83
2023/08/07 08:57:00;;;;;;;3.90;3.77;;;18.20;66.70;;;;;;6200411;28;20227;-83
2023/08/07 09:00:13;;;;;;;4.10;3.57;;;18.40;65.60;;;;;;6203791;28;20247;-81
2023/08/07 09:03:19;;;;;;;3.57;3.30;;;18.50;65.00;;;;;;6193078;28;20233;-83
2023/08/07 09:06:23;;;;;;;3.33;3.23;;;18.50;64.70;;;;;;6203008;28;20232;-84
2023/08/07 09:09:26;;;;;;;3.03;2.93;;;18.50;64.10;;;;;;6209841;28;20239;-86
2023/08/07 09:12:33;;;;;;;2.90;2.80;;;18.70;65.20;;;;;;6200932;28;20290;-85
2023/08/07 09:15:38;;;;;;;3.03;2.93;;;18.70;64.30;;;;;;6202970;28;20235;-82
2023/08/07 09:18:44;;;;;;;5.00;2.63;;;18.80;63.30;;;;;;6210451;28;20273;-84
2023/08/07 09:21:47;;;;;;;3.10;2.90;;;18.70;63.40;;;;;;6188497;28;20244;-84
2023/08/07 09:24:51;;;;;;;4.10;3.00;;;18.70;64.80;;;;;;6197826;28;20313;-84
2023/08/07 09:27:55;;;;;;;3.77;3.27;;;18.70;65.60;;;;;;6202514;28;20274;-82
2023/08/07 09:31:01;;;;;;;3.50;3.40;;;18.50;66.30;;;;;;6206647;28;20243;-84
2023/08/07 09:34:06;;;;;;;3.80;3.47;;;18.40;67.00;;;;;;6208458;28;20235;-84
2023/08/07 09:37:09;;;;;;;3.80;3.60;;;18.40;67.00;;;;;;6200186;28;20236;-84
2023/08/07 09:40:15;;;;;;;3.37;3.17;;;18.50;66.60;;;;;;6202319;28;20242;-84
2023/08/07 09:43:23;;;;;;;4.57;3.03;;;18.80;66.00;;;;;;6206313;28;20238;-83
2023/08/07 09:46:27;;;;;;;3.00;2.90;;;18.80;65.30;;;;;;6203309;28;20246;-83
2023/08/07 09:49:35;;;;;;;3.23;3.00;;;18.70;65.40;;;;;;6198962;28;20239;-84
2023/08/07 09:52:41;;;;;;;3.30;3.10;;;18.50;66.20;;;;;;6209306;28;20239;-84
2023/08/07 09:55:44;;;;;;;2.90;2.80;;;18.30;66.50;;;;;;6202962;28;20231;-84
2023/08/07 09:58:49;;;;;;;3.50;3.17;;;18.60;66.90;;;;;;6202236;28;20247;-86
2023/08/07 10:01:52;;;;;;;3.17;2.97;;;18.70;65.40;;;;;;6207136;28;20245;-85
2023/08/07 10:04:57;;;;;;;3.17;2.97;;;18.60;65.00;;;;;;6211315;28;20926;-82
2023/08/07 10:08:01;;;;;;;3.00;2.80;;;18.40;65.00;;;;;;6197615;28;20247;-84
2023/08/07 10:11:05;;;;;;;3.37;3.10;;;18.40;65.00;;;;;;6204256;28;20859;-84
2023/08/07 10:14:09;;;;;;;3.30;3.07;;;18.50;65.90;;;;;;6208102;28;20235;-83
2023/08/07 10:17:13;;;;;;;3.27;3.07;;;18.70;64.60;;;;;;6203537;28;20254;-83
2023/08/07 10:20:18;;;;;;;3.23;2.80;;;18.90;63.20;;;;;;6206984;28;20234;-87
2023/08/07 10:23:22;;;;;;;4.57;2.77;;;19.10;63.20;;;;;;6213670;28;20296;-82
2023/08/07 10:26:27;;;;;;;2.70;2.53;;;19.00;62.80;;;;;;6208696;28;20247;-85
2023/08/07 10:29:31;;;;;;;2.73;2.60;;;18.90;62.50;;;;;;6208256;28;20259;-83
2023/08/07 10:32:35;;;;;;;7.10;2.90;;;19.10;62.50;;;;;;6201476;28;20240;-83
2023/08/07 10:35:46;;;;;;;3.07;2.43;;;19.20;62.10;;;;;;6207012;28;20600;-84
2023/08/07 10:38:51;;;;;;;3.07;2.87;;;19.20;62.30;;;;;;6213634;28;20247;-83
2023/08/07 10:41:56;;;;;;;2.80;2.70;;;19.30;61.80;;;;;;6205087;28;20721;-84
2023/08/07 10:45:02;;;;;;;3.17;2.73;;;19.20;61.60;;;;;;6197281;28;20267;-85
2023/08/07 10:48:07;;;;;;;3.10;2.90;;;19.10;61.90;;;;;;6204871;28;20239;-83
2023/08/07 10:51:15;;;;;;;3.07;2.83;;;19.20;62.10;;;;;;6199715;28;20758;-83
2023/08/07 10:54:20;;;;;;;3.17;3.00;;;19.30;61.60;;;;;;6200286;28;20244;-85
2023/08/07 10:57:24;;;;;;;5.23;3.00;;;19.50;61.70;;;;;;6204851;28;20305;-82
2023/08/07 11:00:28;;;;;;;3.10;3.00;;;19.40;61.90;;;;;;6183948;28;20315;-84
2023/08/07 11:03:35;;;;;;;2.80;2.60;;;19.30;61.20;;;;;;6201319;28;20883;-85
2023/08/07 11:06:42;;;;;;;2.97;2.73;;;19.20;61.20;;;;;;6208727;28;20252;-83
2023/08/07 11:09:45;;;;;;;2.73;2.47;;;19.10;61.40;;;;;;6200405;28;20395;-83
2023/08/07 11:12:50;;;;;;;2.70;2.50;;;18.90;61.80;;;;;;6198904;28;20331;-81
2023/08/07 11:15:53;;;;;;;2.87;2.77;;;18.40;64.60;;;;;;6198655;28;20251;-82
2023/08/07 11:18:58;;;;;;;2.73;2.63;;;18.00;67.40;;;;;;6205916;28;20657;-83
2023/08/07 11:22:03;;;;;;;3.00;2.80;;;17.50;69.70;;;;;;6203565;28;20328;-84
2023/08/07 11:25:10;;;;;;;3.77;2.70;;;17.50;71.00;;;;;;6202794;28;20323;-83
2023/08/07 11:28:14;;;;;;;3.10;2.90;;;17.60;71.10;;;;;;6208157;28;20378;-85
2023/08/07 11:31:18;;;;;;;5.30;3.03;;;17.80;70.10;;;;;;6209915;28;20901;-85
2023/08/07 11:34:22;;;;;;;3.23;3.03;;;17.80;70.20;;;;;;6207331;28;20227;-84
2023/08/07 11:37:26;;;;;;;3.90;3.30;;;17.80;70.30;;;;;;6196327;28;20247;-84
2023/08/07 11:40:33;;;;;;;3.63;3.23;;;17.80;70.00;;;;;;6205209;28;20228;-86
2023/08/07 11:43:36;;;;;;;3.53;3.43;;;17.80;69.70;;;;;;6205470;28;20332;-82
2023/08/07 11:46:40;;;;;;;3.13;3.03;;;17.80;68.90;;;;;;6201848;28;20636;-85
2023/08/07 11:49:43;;;;;;;4.10;3.80;;;17.70;69.50;;;;;;6202823;28;20243;-83
2023/08/07 11:52:47;;;;;;;3.63;3.53;;;17.80;69.80;;;;;;6202502;28;20235;-83
2023/08/07 11:55:58;;;;;;;3.50;2.93;;;17.80;69.70;;;;;;6223582;28;20263;-80
2023/08/07 11:59:04;;;;;;;4.20;4.00;;;18.00;69.30;;;;;;6217841;28;20383;-83
2023/08/07 12:02:16;;;;;;;3.30;3.10;;;18.30;68.00;;;;;;6208920;28;20837;-85
2023/08/07 12:05:23;;;;;;;5.07;3.00;;;18.40;68.10;;;;;;6210273;28;20839;-85
2023/08/07 12:08:33;;;;;;;5.47;3.27;;;18.70;67.50;;;;;;6208983;28;20744;-85
2023/08/07 12:11:36;;;;;;;4.07;2.97;;;18.90;65.90;;;;;;6213103;28;20238;-85
2023/08/07 12:14:40;;;;;;;2.90;2.80;;;19.00;65.50;;;;;;6210659;28;20238;-84
2023/08/07 12:17:43;;;;;;;2.80;2.70;;;19.20;65.40;;;;;;6205463;28;20242;-85
2023/08/07 12:20:46;;;;;;;4.00;3.00;;;19.30;65.60;;;;;;6206803;28;20815;-82
2023/08/07 12:23:51;;;;;;;3.73;3.03;;;19.50;64.30;;;;;;6197227;28;20244;-86
2023/08/07 12:26:55;;;;;;;3.43;3.13;;;19.30;65.00;;;;;;6196704;28;20243;-84
2023/08/07 12:29:58;;;;;;;5.87;3.40;;;19.40;65.10;;;;;;6206971;28;20235;-83
2023/08/07 12:33:02;;;;;;;6.00;3.13;;;19.50;65.10;;;;;;6207042;28;20250;-87
2023/08/07 12:36:08;;;;;;;3.57;3.37;;;19.50;64.90;;;;;;6213020;28;20235;-83
2023/08/07 12:39:26;;;;;;;3.80;3.30;;;19.40;64.80;;;;;;6204998;28;20267;-84
2023/08/07 12:42:32;;;;;;;4.17;3.40;;;19.40;63.70;;;;;;6204122;28;20259;-85
2023/08/07 12:45:35;;;;;;;3.23;3.03;;;19.40;63.80;;;;;;6207259;28;20272;-85
2023/08/07 12:48:41;;;;;;;4.60;4.23;;;19.20;64.40;;;;;;6202509;28;20247;-85
2023/08/07 12:51:45;;;;;;;5.60;3.60;;;19.20;65.30;;;;;;6198391;28;20231;-85
2023/08/07 12:54:49;;;;;;;6.30;3.37;;;19.10;64.00;;;;;;6203683;28;20251;-85
2023/08/07 12:57:53;;;;;;;4.43;3.57;;;19.10;64.00;;;;;;6205792;28;20251;-85
2023/08/07 13:00:57;;;;;;;4.07;3.30;;;19.00;63.70;;;;;;6210969;28;20246;-84
2023/08/07 13:04:00;;;;;;;4.17;3.80;;;19.00;63.30;;;;;;6210162;28;20246;-85
2023/08/07 13:07:04;;;;;;;7.73;3.87;;;19.00;63.60;;;;;;6214121;28;20982;-84
2023/08/07 13:10:16;;;;;;;4.77;3.20;;;19.00;62.10;;;;;;6207720;28;20239;-82
2023/08/07 13:13:19;;;;;;;6.23;3.50;;;19.10;61.60;;;;;;6204463;28;20235;-83
2023/08/07 13:16:22;;;;;;;3.10;2.90;;;19.30;60.10;;;;;;6207692;28;20243;-83
2023/08/07 13:19:25;;;;;;;6.40;3.60;;;19.60;59.80;;;;;;6240312;28;20224;-83
2023/08/07 13:22:28;;;;;;;3.83;3.33;;;19.70;58.90;;;;;;6236214;28;20219;-81
2023/08/07 13:25:33;;;;;;;6.43;3.27;;;19.90;58.90;;;;;;6238810;28;20218;-82
2023/08/07 13:28:36;;;;;;;6.87;3.13;;;19.60;58.10;;;;;;6226279;28;20236;-81
2023/08/07 13:31:41;;;;;;;4.20;3.07;;;19.50;57.10;;;;;;6234827;28;20238;-83
2023/08/07 13:34:45;;;;;;;4.03;2.40;;;19.40;56.30;;;;;;6229445;28;20231;-83
2023/08/07 13:37:48;;;;;;;4.73;3.03;;;19.50;55.40;;;;;;6224285;28;20500;-84
2023/08/07 13:40:52;;;;;;;3.87;2.83;;;19.50;54.90;;;;;;6200186;28;20243;-81
2023/08/07 13:43:56;;;;;;;7.33;2.77;;;19.70;54.40;;;;;;6194861;28;20236;-85
2023/08/07 13:46:59;;;;;;;3.10;2.80;;;19.70;54.10;;;;;;6196059;28;20415;-81
2023/08/07 13:50:03;;;;;;;6.47;3.20;;;19.70;54.40;;;;;;6209401;28;20266;-85
2023/08/07 13:53:06;;;;;;;2.90;2.80;;;19.60;54.70;;;;;;6210097;28;20340;-85
2023/08/07 13:56:19;;;;;;;3.73;3.43;;;19.70;53.90;;;;;;6202071;28;20392;-86
2023/08/07 13:59:25;;;;;;;5.00;3.40;;;19.90;53.70;;;;;;6208567;28;20243;-86
2023/08/07 14:02:30;;;;;;;3.47;3.17;;;20.10;53.50;;;;;;6211342;28;20244;-86
2023/08/07 14:05:33;;;;;;;5.63;3.60;;;20.30;53.70;;;;;;6205422;28;20307;-84
2023/08/07 14:08:36;;;;;;;4.80;3.53;;;20.30;52.60;;;;;;6206824;28;20246;-80
2023/08/07 14:11:41;;;;;;;7.30;3.70;;;20.30;53.30;;;;;;6203267;28;20274;-86
2023/08/07 14:14:44;;;;;;;4.00;3.67;;;20.20;52.80;;;;;;6206942;28;20306;-82
2023/08/07 14:17:47;;;;;;;4.77;4.30;;;20.20;53.90;;;;;;6201317;28;20242;-83
2023/08/07 14:20:50;;;;;;;8.23;3.63;;;20.20;53.70;;;;;;6201874;28;20697;-83
2023/08/07 14:24:05;;;;;;;3.20;3.07;;;20.10;53.80;;;;;;6196734;28;20301;-82
2023/08/07 14:27:10;;;;;;;4.40;3.37;;;20.10;53.50;;;;;;6212394;28;20239;-85
2023/08/07 14:30:13;;;;;;;5.20;3.30;;;20.00;54.50;;;;;;6210343;28;20231;-84
2023/08/07 14:33:16;;;;;;;7.33;3.67;;;20.00;53.60;;;;;;6198108;28;20243;-85
2023/08/07 14:36:23;;;;;;;3.90;3.40;;;20.00;54.30;;;;;;6205753;28;20618;-79
2023/08/07 14:39:27;;;;;;;4.03;3.27;;;19.80;53.40;;;;;;6202041;28;20250;-80
2023/08/07 14:42:32;;;;;;;5.03;3.07;;;19.70;53.00;;;;;;6196003;28;20196;-79
2023/08/07 14:50:00;;;;;;;3.13;2.70;;;19.70;53.90;;;;;;6202755;28;20227;-79
2023/08/07 15:15:21;;;;;;;4.00;3.70;;;19.30;53.30;;;;;;6236987;28;20895;-84
2023/08/07 15:22:44;;;;;;;3.57;3.27;;;19.40;53.10;;;;;;6234335;28;20208;-81
2023/08/07 15:25:49;;;;;;;4.57;3.37;;;19.40;53.70;;;;;;6233870;28;20246;-81
2023/08/07 15:28:52;;;;;;;4.40;3.27;;;19.40;52.90;;;;;;6233142;28;20637;-85
2023/08/07 15:31:59;;;;;;;4.30;3.37;;;19.50;53.70;;;;;;6235826;28;20226;-81
2023/08/07 15:35:04;;;;;;;4.93;3.03;;;19.40;53.40;;;;;;6238902;28;20333;-83
2023/08/07 15:38:10;;;;;;;9.20;3.50;;;19.40;53.70;;;;;;6235710;28;20226;-84
2023/08/07 15:41:13;;;;;;;5.83;3.60;;;19.60;53.40;;;;;;6228099;28;20231;-83
2023/08/07 15:44:16;;;;;;;5.97;3.57;;;19.70;53.50;;;;;;6235482;28;20234;-83
2023/08/07 15:47:23;;;;;;;7.23;3.90;;;19.90;53.00;;;;;;6232716;28;20290;-83
2023/08/07 15:50:26;;;;;;;4.57;3.50;;;20.00;53.00;;;;;;6237028;28;20230;-86
2023/08/07 15:53:29;;;;;;;5.60;3.50;;;20.00;53.50;;;;;;6239673;28;20246;-84
2023/08/07 15:56:33;;;;;;;3.80;3.40;;;19.90;52.70;;;;;;6226513;28;20250;-80
2023/08/07 15:59:36;;;;;;;3.50;3.20;;;19.70;52.80;;;;;;6236316;28;20238;-83
2023/08/07 16:02:41;;;;;;;3.87;3.43;;;19.40;53.50;;;;;;6235879;28;20735;-83
2023/08/07 16:05:45;;;;;;;5.40;3.27;;;19.40;53.10;;;;;;6235170;28;20235;-84
2023/08/07 16:08:48;;;;;;;4.53;3.00;;;19.50;53.60;;;;;;6226630;28;20861;-84
2023/08/07 16:11:51;;;;;;;4.37;3.30;;;19.40;54.50;;;;;;6234862;28;20616;-84
2023/08/07 16:14:55;;;;;;;5.73;3.60;;;19.50;54.50;;;;;;6234662;28;20911;-83
2023/08/07 16:18:01;;;;;;;4.07;3.70;;;19.50;54.40;;;;;;6238766;28;20238;-84
2023/08/07 16:21:04;;;;;;;6.47;3.60;;;19.50;54.30;;;;;;6237664;28;20317;-81
2023/08/07 16:24:08;;;;;;;5.57;3.83;;;19.40;54.80;;;;;;6229665;28;20658;-78
2023/08/07 16:27:11;;;;;;;3.70;3.40;;;19.30;54.70;;;;;;6237372;28;20310;-79
2023/08/07 16:30:14;;;;;;;3.50;3.30;;;19.20;54.20;;;;;;6239279;28;20230;-80